Search for airport 
image banner adimage banner ad
image banner ad

EKKV - Klaksvik

Located in Klaksvik, Faroe Islands

ICAO - EKKV, IATA -

Data provided by Airmate  

General information

Coordinates: N62°13'4" W6°34'35"
Elevation is 263 feet MSL.
Magnetic variation is -8.2° East
View others Airports in (unassigned)

Operational data

Open for public use
Current time UTC:
Current local time:
Weather at : EKVG - Vagar ( 40 km )
METAR: EKVG 232320Z AUTO 00000KT 9999 -SN OVC044/// 01/M01 Q0988
TAF: TAF EKVG 231421Z 2315/2321 29007KT 9999 SCT020 BKN030
View NOTAMs / SUP AIP / TFR affecting this airport [VIEW]
Communications frequencies: [VIEW]

Runways:

Airport contact information

Address: Klaksvik Faroe Islands

Satellite view of EKKV